createdAt,value
2018-09-24T00:00:13.555Z,7.9
2018-09-24T00:01:15.221Z,7.9
2018-09-24T00:02:16.623Z,7.9
2018-09-24T00:03:18.008Z,7.9
2018-09-24T00:04:19.562Z,7.9
2018-09-24T00:05:21.170Z,7.9
2018-09-24T00:06:22.397Z,7.9
2018-09-24T00:07:23.951Z,7.8
2018-09-24T00:08:25.505Z,7.8
2018-09-24T00:09:27.076Z,7.8
2018-09-24T00:10:28.627Z,7.9
2018-09-24T00:11:30.197Z,7.9
2018-09-24T00:12:31.763Z,7.9
2018-09-24T00:13:33.328Z,7.9
2018-09-24T00:14:34.895Z,7.9
2018-09-24T00:15:36.477Z,7.9
2018-09-24T00:16:38.060Z,7.9
2018-09-24T00:17:39.627Z,7.9
2018-09-24T00:18:41.009Z,7.9
2018-09-24T00:19:42.576Z,7.9
2018-09-24T00:20:43.965Z,7.8
2018-09-24T00:21:45.538Z,7.8
2018-09-24T00:22:47.131Z,7.8
2018-09-24T00:23:48.688Z,7.8
2018-09-24T00:24:50.248Z,7.8
2018-09-24T00:25:51.648Z,7.8
2018-09-24T00:26:53.204Z,7.8
2018-09-24T00:27:54.764Z,7.8
2018-09-24T00:28:56.320Z,7.8
2018-09-24T00:29:57.873Z,7.8
2018-09-24T00:30:59.425Z,7.8
2018-09-24T00:32:01.001Z,7.8
2018-09-24T00:33:02.590Z,7.8
2018-09-24T00:34:04.167Z,7.8
2018-09-24T00:35:05.738Z,7.8
2018-09-24T00:36:07.296Z,7.8
2018-09-24T00:37:08.857Z,7.8
2018-09-24T00:38:10.427Z,7.8
2018-09-24T00:39:11.997Z,7.8
2018-09-24T00:40:13.548Z,7.8
2018-09-24T00:41:15.119Z,7.8
2018-09-24T00:42:16.697Z,7.8
2018-09-24T00:43:18.273Z,7.8
2018-09-24T00:44:19.821Z,7.9
2018-09-24T00:45:21.378Z,7.9
2018-09-24T00:46:22.947Z,7.9
2018-09-24T00:47:24.507Z,7.9
2018-09-24T00:48:26.047Z,7.9
2018-09-24T00:49:27.597Z,7.9
2018-09-24T00:50:29.144Z,7.9
2018-09-24T00:51:30.705Z,7.9
2018-09-24T00:52:32.276Z,7.9
2018-09-24T00:53:33.877Z,7.9
2018-09-24T00:54:35.442Z,7.9
2018-09-24T00:55:36.837Z,7.9
2018-09-24T00:56:38.392Z,7.9
2018-09-24T00:57:39.784Z,7.9
2018-09-24T00:58:41.178Z,7.9
2018-09-24T00:59:42.742Z,7.8
2018-09-24T01:00:44.298Z,7.8
2018-09-24T01:01:45.851Z,7.8
2018-09-24T01:02:47.474Z,7.8
2018-09-24T01:03:49.041Z,7.8
2018-09-24T01:04:50.593Z,7.9
2018-09-24T01:05:52.167Z,7.9
2018-09-24T01:06:53.737Z,7.9
2018-09-24T01:07:55.292Z,7.8
2018-09-24T01:08:56.860Z,7.8
2018-09-24T01:09:58.275Z,7.8
2018-09-24T01:10:59.828Z,7.8
2018-09-24T01:12:01.413Z,7.8
2018-09-24T01:13:02.986Z,7.9
2018-09-24T01:14:04.557Z,7.8
2018-09-24T01:15:06.098Z,7.8
2018-09-24T01:16:07.669Z,7.8
2018-09-24T01:17:09.207Z,7.8
2018-09-24T01:18:10.755Z,7.8
2018-09-24T01:19:12.345Z,7.8
2018-09-24T01:20:13.904Z,7.8
2018-09-24T01:21:15.487Z,7.8
2018-09-24T01:22:17.041Z,7.8
2018-09-24T01:23:18.617Z,7.8
2018-09-24T01:24:20.175Z,7.7
2018-09-24T01:25:21.753Z,7.6
2018-09-24T01:26:23.308Z,7.5
2018-09-24T01:27:24.888Z,7.4
2018-09-24T01:28:26.266Z,7.2
2018-09-24T01:29:27.826Z,7.1
2018-09-24T01:30:29.382Z,7.2
2018-09-24T01:31:30.956Z,7.2
2018-09-24T01:32:32.347Z,7.2
2018-09-24T01:33:33.750Z,7.2
2018-09-24T01:34:35.316Z,7.2
2018-09-24T01:35:36.907Z,7.1
2018-09-24T01:36:38.461Z,7.2
2018-09-24T01:37:39.706Z,7.2
2018-09-24T01:38:41.272Z,7.2
2018-09-24T01:39:42.826Z,7.2
2018-09-24T01:40:44.367Z,7.2
2018-09-24T01:41:45.597Z,7.2
2018-09-24T01:42:47.175Z,7.2
2018-09-24T01:43:48.741Z,7.2
2018-09-24T01:44:50.288Z,7.2
2018-09-24T01:45:51.840Z,7.2
2018-09-24T01:46:53.445Z,7.2
2018-09-24T01:47:55.025Z,7.2
2018-09-24T01:48:56.594Z,7.2
2018-09-24T01:49:58.180Z,7.2
2018-09-24T01:50:59.727Z,7.2
2018-09-24T01:52:01.283Z,7.2
2018-09-24T01:53:02.853Z,7.2
2018-09-24T01:54:04.413Z,7.2
2018-09-24T01:55:05.955Z,7.2
2018-09-24T01:56:07.506Z,7.2
2018-09-24T01:57:08.892Z,7.2
2018-09-24T01:58:10.453Z,7.2
2018-09-24T01:59:12.032Z,7.3
2018-09-24T02:00:13.581Z,7.3
2018-09-24T02:01:15.138Z,7.3
2018-09-24T02:02:16.695Z,7.3
2018-09-24T02:03:18.273Z,7.3
2018-09-24T02:04:19.829Z,7.3
2018-09-24T02:05:21.394Z,7.4
2018-09-24T02:06:22.786Z,7.4
2018-09-24T02:07:24.169Z,7.5
2018-09-24T02:08:25.734Z,7.5
2018-09-24T02:09:27.316Z,7.6
2018-09-24T02:10:28.875Z,7.6
2018-09-24T02:11:30.424Z,7.7
2018-09-24T02:12:31.997Z,7.7
2018-09-24T02:13:33.545Z,7.7
2018-09-24T02:14:35.114Z,7.8
2018-09-24T02:15:36.724Z,7.8
2018-09-24T02:16:38.286Z,7.9
2018-09-24T02:17:39.847Z,7.9
2018-09-24T02:18:41.399Z,7.9
2018-09-24T02:19:42.959Z,7.9
2018-09-24T02:20:44.756Z,7.9
2018-09-24T02:21:46.165Z,7.9
2018-09-24T02:22:47.732Z,7.9
2018-09-24T02:23:49.294Z,7.9
2018-09-24T02:24:50.866Z,7.9
2018-09-24T02:25:52.403Z,7.9
2018-09-24T02:26:53.962Z,7.9
2018-09-24T02:27:55.535Z,7.9
2018-09-24T02:28:56.957Z,7.9
2018-09-24T02:29:58.515Z,7.8
2018-09-24T02:31:00.089Z,7.8
2018-09-24T02:32:01.660Z,7.8
2018-09-24T02:33:03.208Z,7.8
2018-09-24T02:34:04.798Z,7.7
2018-09-24T02:35:06.207Z,7.7
2018-09-24T02:36:07.793Z,7.7
2018-09-24T02:37:09.354Z,7.7
2018-09-24T02:38:10.940Z,7.7
2018-09-24T02:39:12.539Z,7.7
2018-09-24T02:40:14.105Z,7.7
2018-09-24T02:41:15.677Z,7.7
2018-09-24T02:42:17.287Z,7.7
2018-09-24T02:43:18.847Z,7.7
2018-09-24T02:44:20.425Z,7.7
2018-09-24T02:45:22.068Z,7.7
2018-09-24T02:46:23.467Z,7.6
2018-09-24T02:47:25.036Z,7.6
2018-09-24T02:48:26.595Z,7.6
2018-09-24T02:49:28.157Z,7.6
2018-09-24T02:50:29.716Z,7.7
2018-09-24T02:51:31.280Z,7.7
2018-09-24T02:52:32.842Z,7.7
2018-09-24T02:53:34.415Z,7.7
2018-09-24T02:54:35.969Z,7.7
2018-09-24T02:55:37.543Z,7.7
2018-09-24T02:56:39.111Z,7.7
2018-09-24T02:57:40.686Z,7.8
2018-09-24T02:58:42.084Z,7.8
2018-09-24T02:59:43.641Z,7.8
2018-09-24T03:00:45.207Z,7.8
2018-09-24T03:01:46.779Z,7.8
2018-09-24T03:02:48.342Z,7.8
2018-09-24T03:03:49.907Z,7.8
2018-09-24T03:04:51.312Z,7.8
2018-09-24T03:05:53.099Z,7.8
2018-09-24T03:06:54.683Z,7.8
2018-09-24T03:07:56.273Z,7.9
2018-09-24T03:08:57.829Z,7.9
2018-09-24T03:09:59.385Z,7.9
2018-09-24T03:11:00.955Z,7.9
2018-09-24T03:12:02.550Z,7.9
2018-09-24T03:13:04.113Z,7.9
2018-09-24T03:14:05.509Z,7.9
2018-09-24T03:15:06.906Z,7.9
2018-09-24T03:16:08.495Z,7.9
2018-09-24T03:17:10.068Z,7.9
2018-09-24T03:18:11.639Z,7.9
2018-09-24T03:19:13.199Z,7.7
2018-09-24T03:20:14.748Z,7.8
2018-09-24T03:21:16.151Z,7.9
2018-09-24T03:22:17.715Z,7.9
2018-09-24T03:23:19.278Z,7.9
2018-09-24T03:24:20.838Z,7.9
2018-09-24T03:25:22.406Z,7.8
2018-09-24T03:26:24.556Z,7.8
2018-09-24T03:27:26.136Z,7.8
2018-09-24T03:28:27.537Z,7.7
2018-09-24T03:29:29.107Z,7.7
2018-09-24T03:30:30.689Z,7.6
2018-09-24T03:31:32.114Z,7.4
2018-09-24T03:32:33.714Z,7.3
2018-09-24T03:33:35.296Z,7.2
2018-09-24T03:34:36.851Z,7.2
2018-09-24T03:35:38.406Z,7.2
2018-09-24T03:36:39.950Z,7.2
2018-09-24T03:37:41.331Z,7.2
2018-09-24T03:38:42.896Z,7.2
2018-09-24T03:39:44.452Z,7.2
2018-09-24T03:40:46.016Z,7.2
2018-09-24T03:41:47.631Z,7.2
2018-09-24T03:42:49.190Z,7.2
2018-09-24T03:43:50.749Z,7.2
2018-09-24T03:44:52.316Z,7.2
2018-09-24T03:45:53.715Z,7.2
2018-09-24T03:46:55.279Z,7.2
2018-09-24T03:47:56.890Z,7.2
2018-09-24T03:48:58.458Z,7.2
2018-09-24T03:50:00.027Z,7.2
2018-09-24T03:51:01.438Z,7.2
2018-09-24T03:52:02.885Z,7.2
2018-09-24T03:53:04.443Z,7.2
2018-09-24T03:54:05.851Z,7.2
2018-09-24T03:55:07.431Z,7.2
2018-09-24T03:56:09.022Z,7.2
2018-09-24T03:57:10.588Z,7.2
2018-09-24T03:58:12.172Z,7.2
2018-09-24T03:59:13.727Z,7.3
2018-09-24T04:00:15.337Z,7.2
2018-09-24T04:01:16.747Z,7.2
2018-09-24T04:02:18.318Z,7.2
2018-09-24T04:03:19.881Z,7.2
2018-09-24T04:04:21.472Z,7.2
2018-09-24T04:05:23.035Z,7.2
2018-09-24T04:06:24.602Z,7.2
2018-09-24T04:07:26.149Z,7.2
2018-09-24T04:08:27.717Z,7.2
2018-09-24T04:09:29.492Z,7.2
2018-09-24T04:10:31.113Z,7.2
2018-09-24T04:11:32.696Z,7.2
2018-09-24T04:12:34.275Z,7.2
2018-09-24T04:13:35.879Z,7.2
2018-09-24T04:14:37.480Z,7.2
2018-09-24T04:15:39.047Z,7.2
2018-09-24T04:16:40.637Z,7.2
2018-09-24T04:17:42.313Z,7.2
2018-09-24T04:18:43.892Z,7.2
2018-09-24T04:19:45.447Z,7.2
2018-09-24T04:20:47.001Z,7.2
2018-09-24T04:21:48.416Z,7.2
2018-09-24T04:22:49.993Z,7.2
2018-09-24T04:23:51.584Z,7.3
2018-09-24T04:24:53.172Z,7.3
2018-09-24T04:25:54.722Z,7.3
2018-09-24T04:26:56.306Z,7.4
2018-09-24T04:27:57.899Z,7.4
2018-09-24T04:28:59.471Z,7.4
2018-09-24T04:30:00.872Z,7.4
2018-09-24T04:31:02.445Z,7.5
2018-09-24T04:32:04.038Z,7.5
2018-09-24T04:33:05.599Z,7.6
2018-09-24T04:34:07.216Z,7.6
2018-09-24T04:35:08.787Z,7.6
2018-09-24T04:36:10.403Z,7.7
2018-09-24T04:37:11.986Z,7.7
2018-09-24T04:38:13.550Z,7.7
2018-09-24T04:39:15.147Z,7.8
2018-09-24T04:40:16.721Z,7.8
2018-09-24T04:41:18.305Z,7.8
2018-09-24T04:42:19.872Z,7.8
2018-09-24T04:43:21.278Z,7.8
2018-09-24T04:44:22.860Z,7.8
2018-09-24T04:45:24.460Z,7.8
2018-09-24T04:46:26.006Z,7.8
2018-09-24T04:47:27.570Z,7.9
2018-09-24T04:48:29.135Z,7.9
2018-09-24T04:49:30.704Z,7.9
2018-09-24T04:50:32.326Z,7.9
2018-09-24T04:51:33.890Z,7.9
2018-09-24T04:52:35.429Z,7.9
2018-09-24T04:53:36.981Z,7.9
2018-09-24T04:54:38.228Z,7.9
2018-09-24T04:55:39.805Z,7.9
2018-09-24T04:56:41.363Z,7.9
2018-09-24T04:57:42.929Z,7.9
2018-09-24T04:58:45.079Z,7.9
2018-09-24T04:59:46.694Z,7.9
2018-09-24T05:00:48.262Z,7.9
2018-09-24T05:01:49.837Z,7.9
2018-09-24T05:02:51.248Z,7.9
2018-09-24T05:03:52.659Z,7.9
2018-09-24T05:04:54.208Z,7.9
2018-09-24T05:05:55.779Z,7.9
2018-09-24T05:06:57.337Z,7.9
2018-09-24T05:07:58.888Z,7.9
2018-09-24T05:09:00.448Z,7.9
2018-09-24T05:10:01.919Z,7.9
2018-09-24T05:11:03.489Z,7.9
2018-09-24T05:12:05.075Z,7.9
2018-09-24T05:13:06.650Z,7.9
2018-09-24T05:14:08.279Z,7.9
2018-09-24T05:15:09.843Z,7.9
2018-09-24T05:16:11.835Z,7.9
2018-09-24T05:17:13.487Z,7.9
2018-09-24T05:18:15.068Z,7.9
2018-09-24T05:19:16.491Z,7.9
2018-09-24T05:20:18.844Z,7.9
2018-09-24T05:21:20.301Z,7.9
2018-09-24T05:22:21.688Z,7.9
2018-09-24T05:23:23.237Z,7.9
2018-09-24T05:24:24.813Z,7.9
2018-09-24T05:25:26.376Z,7.2
2018-09-24T05:26:27.951Z,7.4
2018-09-24T05:27:30.579Z,7.5
2018-09-24T05:28:32.229Z,7.6
2018-09-24T05:29:33.786Z,7.7
2018-09-24T05:30:35.397Z,7.8
2018-09-24T05:31:36.998Z,7.8
2018-09-24T05:32:38.574Z,7.8
2018-09-24T05:33:40.151Z,7.7
2018-09-24T05:34:41.728Z,7.7
2018-09-24T05:35:43.296Z,7.6
2018-09-24T05:36:44.875Z,7.5
2018-09-24T05:37:46.452Z,7.3
2018-09-24T05:38:48.016Z,7.2
2018-09-24T05:39:49.612Z,7.2
2018-09-24T05:40:51.191Z,7.2
2018-09-24T05:41:52.765Z,7.2
2018-09-24T05:42:54.338Z,7.2
2018-09-24T05:43:55.917Z,7.2
2018-09-24T05:44:57.336Z,7.2
2018-09-24T05:45:58.975Z,7.2
2018-09-24T05:47:00.397Z,7.2
2018-09-24T05:48:02.393Z,7.2
2018-09-24T05:49:03.868Z,7.2
2018-09-24T05:50:05.448Z,7.2
2018-09-24T05:51:07.015Z,7.2
2018-09-24T05:52:08.583Z,7.2
2018-09-24T05:53:10.157Z,7.2
2018-09-24T05:54:11.746Z,7.2
2018-09-24T05:55:13.188Z,7.2
2018-09-24T05:56:14.780Z,7.2
2018-09-24T05:57:16.369Z,7.2
2018-09-24T05:58:17.920Z,7.2
2018-09-24T05:59:19.508Z,7.2
2018-09-24T06:00:21.067Z,7.2
2018-09-24T06:01:22.651Z,7.2
2018-09-24T06:02:24.218Z,7.2
2018-09-24T06:03:25.689Z,7.2
2018-09-24T06:04:27.492Z,7.2
2018-09-24T06:05:29.057Z,7.2
2018-09-24T06:06:30.621Z,7.2
2018-09-24T06:07:32.189Z,7.2
2018-09-24T06:08:33.781Z,7.2
2018-09-24T06:09:35.433Z,7.2
2018-09-24T06:10:36.817Z,7.2
2018-09-24T06:11:38.397Z,7.2
2018-09-24T06:12:39.988Z,7.3
2018-09-24T06:13:42.191Z,7.3
2018-09-24T06:14:43.779Z,7.3
2018-09-24T06:15:45.349Z,7.4
2018-09-24T06:16:46.936Z,7.4
2018-09-24T06:17:48.497Z,7.5
2018-09-24T06:18:50.189Z,7.5
2018-09-24T06:19:51.614Z,7.6
2018-09-24T06:20:53.186Z,7.6
2018-09-24T06:21:54.749Z,7.7
2018-09-24T06:22:56.318Z,7.7
2018-09-24T06:23:57.889Z,7.8
2018-09-24T06:24:59.313Z,7.8
2018-09-24T06:26:00.882Z,7.9
2018-09-24T06:27:02.445Z,7.9
2018-09-24T06:28:04.043Z,7.9
2018-09-24T06:29:05.618Z,7.9
2018-09-24T06:30:07.172Z,7.9
2018-09-24T06:31:08.748Z,7.9
2018-09-24T06:32:10.310Z,7.9
2018-09-24T06:33:11.868Z,7.9
2018-09-24T06:34:13.697Z,7.9
2018-09-24T06:35:15.311Z,7.9
2018-09-24T06:36:16.868Z,7.9
2018-09-24T06:37:18.426Z,7.9
2018-09-24T06:38:20.015Z,7.9
2018-09-24T06:39:21.596Z,7.9
2018-09-24T06:40:23.147Z,7.9
2018-09-24T06:41:24.846Z,7.9
2018-09-24T06:42:26.343Z,7.9
2018-09-24T06:43:27.971Z,7.9
2018-09-24T06:44:29.545Z,7.9
2018-09-24T06:45:31.180Z,7.9
2018-09-24T06:46:32.758Z,7.9
2018-09-24T06:47:34.341Z,7.9
2018-09-24T06:48:35.898Z,7.9
2018-09-24T06:49:37.851Z,7.9
2018-09-24T06:50:39.420Z,7.9
2018-09-24T06:51:41.006Z,7.9
2018-09-24T06:52:42.578Z,7.9
2018-09-24T06:53:44.144Z,7.9
2018-09-24T06:54:45.701Z,7.9
2018-09-24T06:55:47.296Z,7.9
2018-09-24T06:56:48.703Z,7.9
2018-09-24T06:57:50.276Z,7.9
2018-09-24T06:58:51.838Z,7.9
2018-09-24T06:59:53.417Z,7.9
2018-09-24T07:00:54.990Z,7.9
2018-09-24T07:01:56.541Z,7.9
2018-09-24T07:02:58.127Z,7.9
2018-09-24T07:03:59.708Z,7.9
2018-09-24T07:05:01.282Z,7.9
2018-09-24T07:06:02.882Z,7.9
2018-09-24T07:07:04.470Z,7.9
2018-09-24T07:08:06.036Z,7.9
2018-09-24T07:09:07.516Z,7.9
2018-09-24T07:10:09.089Z,7.9
2018-09-24T07:11:10.935Z,7.9
2018-09-24T07:12:12.552Z,7.9
2018-09-24T07:13:14.122Z,7.9
2018-09-24T07:14:15.678Z,7.9
2018-09-24T07:15:17.074Z,7.9
2018-09-24T07:16:18.649Z,7.9
2018-09-24T07:17:20.263Z,7.9
2018-09-24T07:18:21.832Z,7.9
2018-09-24T07:19:23.380Z,7.9
2018-09-24T07:20:24.805Z,7.9
2018-09-24T07:21:26.839Z,7.9
2018-09-24T07:22:28.493Z,7.9
2018-09-24T07:23:30.052Z,7.9
2018-09-24T07:24:31.627Z,7.9
2018-09-24T07:25:33.215Z,7.9
2018-09-24T07:26:34.793Z,7.9
2018-09-24T07:27:36.773Z,7.8
2018-09-24T07:28:38.393Z,7.8
2018-09-24T07:29:39.952Z,7.7
2018-09-24T07:30:41.535Z,7.6
2018-09-24T07:31:43.089Z,7.5
2018-09-24T07:32:44.652Z,7.3
2018-09-24T07:33:46.122Z,7.2
2018-09-24T07:34:47.693Z,7.2
2018-09-24T07:35:49.257Z,7.2
2018-09-24T07:36:50.839Z,7.2
2018-09-24T07:37:52.401Z,7.2
2018-09-24T07:38:53.967Z,7.2
2018-09-24T07:39:55.525Z,7.2
2018-09-24T07:40:57.076Z,7.2
2018-09-24T07:41:58.651Z,7.2
2018-09-24T07:43:00.618Z,7.2
2018-09-24T07:44:02.245Z,7.2
2018-09-24T07:45:03.824Z,7.2
2018-09-24T07:46:05.394Z,7.2
2018-09-24T07:47:06.990Z,7.2
2018-09-24T07:48:08.570Z,7.2
2018-09-24T07:49:10.144Z,7.2
2018-09-24T07:50:11.710Z,7.2
2018-09-24T07:51:13.164Z,7.2
2018-09-24T07:52:14.728Z,7.2
2018-09-24T07:53:16.309Z,7.2
2018-09-24T07:54:17.882Z,7.2
2018-09-24T07:55:19.685Z,7.2
2018-09-24T07:56:21.245Z,7.2
2018-09-24T07:57:22.834Z,7.2
2018-09-24T07:58:24.640Z,7.2
2018-09-24T07:59:26.227Z,7.2
2018-09-24T08:00:27.807Z,7.2
2018-09-24T08:01:29.420Z,7.2
2018-09-24T08:02:31.007Z,7.2
2018-09-24T08:03:32.587Z,7.3
2018-09-24T08:04:34.169Z,7.3
2018-09-24T08:05:35.745Z,7.3
2018-09-24T08:06:37.331Z,7.4
2018-09-24T08:07:39.400Z,7.5
2018-09-24T08:08:40.964Z,7.5
2018-09-24T08:09:42.591Z,7.6
2018-09-24T08:10:44.188Z,7.7
2018-09-24T08:11:45.586Z,7.7
2018-09-24T08:12:47.441Z,7.8
2018-09-24T08:13:49.036Z,7.8
2018-09-24T08:14:50.624Z,7.8
2018-09-24T08:15:52.183Z,7.8
2018-09-24T08:16:53.778Z,7.9
2018-09-24T08:17:55.363Z,7.9
2018-09-24T08:18:56.929Z,7.9
2018-09-24T08:19:58.332Z,7.9
2018-09-24T08:21:00.269Z,7.9
2018-09-24T08:22:01.903Z,7.9
2018-09-24T08:23:03.468Z,7.9
2018-09-24T08:24:05.028Z,7.9
2018-09-24T08:25:06.592Z,7.9
2018-09-24T08:26:08.158Z,7.9
2018-09-24T08:27:09.751Z,7.9
2018-09-24T08:28:11.312Z,7.9
2018-09-24T08:29:12.872Z,7.9
2018-09-24T08:30:14.424Z,7.9
2018-09-24T08:31:15.829Z,7.9
2018-09-24T08:32:17.401Z,7.9
2018-09-24T08:33:18.975Z,7.9
2018-09-24T08:34:20.541Z,7.9
2018-09-24T08:35:22.099Z,7.9
2018-09-24T08:36:24.240Z,7.9
2018-09-24T08:37:25.906Z,7.9
2018-09-24T08:38:27.490Z,7.9
2018-09-24T08:39:29.050Z,7.9
2018-09-24T08:40:30.618Z,7.9
2018-09-24T08:41:32.177Z,7.9
2018-09-24T08:42:33.750Z,7.9
2018-09-24T08:43:35.339Z,7.9
2018-09-24T08:44:36.918Z,7.9
2018-09-24T08:45:38.495Z,7.9
2018-09-24T08:46:40.072Z,7.9
2018-09-24T08:47:41.636Z,7.9
2018-09-24T08:48:43.224Z,7.9
2018-09-24T08:49:45.272Z,7.9
2018-09-24T08:50:46.865Z,7.9
2018-09-24T08:51:48.458Z,7.9
2018-09-24T08:52:50.035Z,7.9
2018-09-24T08:53:51.616Z,7.9
2018-09-24T08:54:53.184Z,7.9
2018-09-24T08:55:54.824Z,7.9
2018-09-24T08:56:57.150Z,7.9
2018-09-24T08:57:58.798Z,7.9
2018-09-24T08:59:00.376Z,7.9
2018-09-24T09:00:01.942Z,7.9
2018-09-24T09:01:03.517Z,7.2
2018-09-24T09:02:05.092Z,7.4
2018-09-24T09:03:06.650Z,7.5
2018-09-24T09:04:08.228Z,7.7
2018-09-24T09:05:09.808Z,7.8
2018-09-24T09:06:11.402Z,7.9
2018-09-24T09:07:12.962Z,7.9
2018-09-24T09:08:14.959Z,7.1
2018-09-24T09:09:16.578Z,7.2
2018-09-24T09:10:17.996Z,7.2
2018-09-24T09:11:19.558Z,7.2
2018-09-24T09:12:21.124Z,7.2
2018-09-24T09:13:22.525Z,7.2
2018-09-24T09:14:24.095Z,7.2
2018-09-24T09:15:25.657Z,7.2
2018-09-24T09:16:27.732Z,7.2
2018-09-24T09:17:29.366Z,7.2
2018-09-24T09:18:30.920Z,7.2
2018-09-24T09:19:32.517Z,7.2
2018-09-24T09:20:34.093Z,7.2
2018-09-24T09:21:35.648Z,7.2
2018-09-24T09:22:37.210Z,7.2
2018-09-24T09:23:38.758Z,7.2
2018-09-24T09:24:40.842Z,7.2
2018-09-24T09:25:42.419Z,7.2
2018-09-24T09:26:43.976Z,7.2
2018-09-24T09:27:45.545Z,7.2
2018-09-24T09:28:47.115Z,7.2
2018-09-24T09:29:48.714Z,7.2
2018-09-24T09:30:50.298Z,7.2
2018-09-24T09:31:51.864Z,7.2
2018-09-24T09:32:53.106Z,7.2
2018-09-24T09:33:54.668Z,7.2
2018-09-24T09:34:56.216Z,7.2
2018-09-24T09:35:57.769Z,7.2
2018-09-24T09:36:59.342Z,7.2
2018-09-24T09:38:00.929Z,7.2
2018-09-24T09:39:02.492Z,7.2
2018-09-24T09:40:04.047Z,7.2
2018-09-24T09:41:06.088Z,7.2
2018-09-24T09:42:07.723Z,7.2
2018-09-24T09:43:09.276Z,7.2
2018-09-24T09:44:10.840Z,7.3
2018-09-24T09:45:12.401Z,7.3
2018-09-24T09:46:13.957Z,7.3
2018-09-24T09:47:15.515Z,7.3
2018-09-24T09:48:17.084Z,7.3
2018-09-24T09:49:18.652Z,7.4
2018-09-24T09:50:20.044Z,7.4
2018-09-24T09:51:21.432Z,7.4
2018-09-24T09:52:23.008Z,7.4
2018-09-24T09:53:24.791Z,7.4
2018-09-24T09:54:26.381Z,7.4
2018-09-24T09:55:27.793Z,7.4
2018-09-24T09:56:29.363Z,7.5
2018-09-24T09:57:30.907Z,7.6
2018-09-24T09:58:32.469Z,7.6
2018-09-24T09:59:34.049Z,7.7
2018-09-24T10:00:35.635Z,7.8
2018-09-24T10:01:37.268Z,7.8
2018-09-24T10:02:38.858Z,7.9
2018-09-24T10:03:40.419Z,7.9
2018-09-24T10:04:42.203Z,7.9
2018-09-24T10:05:43.666Z,7.9
2018-09-24T10:06:45.218Z,7.9
2018-09-24T10:07:46.793Z,7.9
2018-09-24T10:08:48.381Z,7.9
2018-09-24T10:09:49.944Z,7.9
2018-09-24T10:10:51.511Z,7.9
2018-09-24T10:11:53.093Z,7.9
2018-09-24T10:12:54.682Z,7.9
2018-09-24T10:13:56.269Z,7.9
2018-09-24T10:14:57.680Z,7.9
2018-09-24T10:15:59.250Z,7.9
2018-09-24T10:17:00.813Z,7.9
2018-09-24T10:18:02.376Z,7.9
2018-09-24T10:19:03.940Z,7.9
2018-09-24T10:20:05.552Z,7.9
2018-09-24T10:21:07.182Z,7.9
2018-09-24T10:22:08.767Z,7.9
2018-09-24T10:23:10.167Z,7.9
2018-09-24T10:24:11.231Z,7.9
2018-09-24T10:25:12.782Z,7.9
2018-09-24T10:26:14.338Z,7.9
2018-09-24T10:27:15.898Z,7.9
2018-09-24T10:28:17.467Z,7.9
2018-09-24T10:29:19.037Z,7.9
2018-09-24T10:30:20.597Z,7.9
2018-09-24T10:31:22.153Z,7.9
2018-09-24T10:32:23.723Z,7.9
2018-09-24T10:33:25.309Z,7.9
2018-09-24T10:34:26.900Z,7.9
2018-09-24T10:35:28.457Z,7.9
2018-09-24T10:36:30.026Z,7.9
2018-09-24T10:37:31.596Z,7.9
2018-09-24T10:38:33.161Z,7.9
2018-09-24T10:39:35.085Z,7.9
2018-09-24T10:40:36.647Z,7.9
2018-09-24T10:41:38.214Z,7.9
2018-09-24T10:42:39.788Z,7.9
2018-09-24T10:43:41.365Z,7.9
2018-09-24T10:44:42.947Z,7.9
2018-09-24T10:45:44.506Z,7.9
2018-09-24T10:46:46.090Z,7.9
2018-09-24T10:47:47.496Z,7.9
2018-09-24T10:48:49.053Z,7.9
2018-09-24T10:49:50.622Z,7.9
2018-09-24T10:50:52.207Z,7.9
2018-09-24T10:51:53.770Z,7.9
2018-09-24T10:52:55.550Z,7.9
2018-09-24T10:53:57.131Z,7.9
2018-09-24T10:54:58.549Z,7.9
2018-09-24T10:56:00.122Z,7.6
2018-09-24T10:57:01.683Z,7.7
2018-09-24T10:58:03.401Z,7.9
2018-09-24T10:59:05.131Z,7.3
2018-09-24T11:00:06.768Z,7.3
2018-09-24T11:01:08.399Z,7.3
2018-09-24T11:02:10.182Z,7.3
2018-09-24T11:03:11.745Z,7.3
2018-09-24T11:04:13.458Z,7.2
2018-09-24T11:05:14.852Z,7.2
2018-09-24T11:06:16.443Z,7.2
2018-09-24T11:07:18.016Z,7.2
2018-09-24T11:08:19.584Z,7.2
2018-09-24T11:09:21.147Z,7.2
2018-09-24T11:10:23.121Z,7.2
2018-09-24T11:11:24.716Z,7.2
2018-09-24T11:12:26.279Z,7.2
2018-09-24T11:13:27.845Z,7.2
2018-09-24T11:14:29.447Z,7.2
2018-09-24T11:15:31.004Z,7.2
2018-09-24T11:16:33.981Z,7.2
2018-09-24T11:17:37.631Z,7.2
2018-09-24T11:19:11.257Z,7.2
2018-09-24T11:20:12.807Z,7.2
2018-09-24T11:21:14.369Z,7.2
2018-09-24T11:22:16.339Z,7.2
2018-09-24T11:23:17.920Z,7.2
2018-09-24T11:24:19.486Z,7.2
2018-09-24T11:25:20.887Z,7.2
2018-09-24T11:27:34.056Z,7.2
2018-09-24T11:28:35.609Z,7.2
2018-09-24T11:29:37.914Z,7.2
2018-09-24T11:30:39.544Z,7.2
2018-09-24T11:31:41.101Z,7.2
2018-09-24T11:32:42.665Z,7.3
2018-09-24T11:33:44.242Z,7.3
2018-09-24T11:34:45.860Z,7.3
2018-09-24T11:35:47.426Z,7.3
2018-09-24T11:36:48.984Z,7.3
2018-09-24T11:37:50.393Z,7.3
2018-09-24T11:38:51.966Z,7.3
2018-09-24T11:39:53.524Z,7.3
2018-09-24T11:40:54.929Z,7.3
2018-09-24T11:41:56.503Z,7.3
2018-09-24T11:42:58.070Z,7.3
2018-09-24T11:43:59.639Z,7.3
2018-09-24T11:45:01.220Z,7.4
2018-09-24T11:46:02.848Z,7.4
2018-09-24T11:47:05.144Z,7.5
2018-09-24T11:48:06.726Z,7.6
2018-09-24T11:49:08.116Z,7.6
2018-09-24T11:50:09.679Z,7.6
2018-09-24T11:51:11.263Z,7.7
2018-09-24T11:52:12.837Z,7.7
2018-09-24T11:53:14.406Z,7.7
2018-09-24T11:54:15.959Z,7.7
2018-09-24T11:55:17.514Z,7.7
2018-09-24T11:56:19.374Z,7.8
2018-09-24T11:57:20.943Z,7.8
2018-09-24T11:58:22.516Z,7.8
2018-09-24T11:59:24.074Z,7.8
2018-09-24T12:00:25.667Z,7.8
2018-09-24T12:01:27.227Z,7.8
2018-09-24T12:02:28.911Z,7.9
2018-09-24T12:03:30.347Z,7.9
2018-09-24T12:04:31.782Z,7.9
2018-09-24T12:05:33.345Z,7.9
2018-09-24T12:06:34.915Z,7.9
2018-09-24T12:07:36.478Z,7.9
2018-09-24T12:08:38.044Z,7.9
2018-09-24T12:09:39.460Z,7.9
2018-09-24T12:10:41.510Z,7.9
2018-09-24T12:11:43.075Z,7.9
2018-09-24T12:12:44.657Z,7.9
2018-09-24T12:13:46.226Z,7.9
2018-09-24T12:14:47.458Z,7.9
2018-09-24T12:15:49.107Z,7.9
2018-09-24T12:16:50.381Z,7.9
2018-09-24T12:17:51.791Z,7.9
2018-09-24T12:18:53.208Z,7.9
2018-09-24T12:19:54.780Z,7.9
2018-09-24T12:20:56.349Z,7.9
2018-09-24T12:21:57.934Z,7.9
2018-09-24T12:22:59.497Z,7.8
2018-09-24T12:24:01.063Z,7.8
2018-09-24T12:25:02.653Z,7.8
2018-09-24T12:26:04.227Z,7.7
2018-09-24T12:27:05.782Z,7.7
2018-09-24T12:28:07.381Z,7.7
2018-09-24T12:29:08.782Z,7.6
2018-09-24T12:30:10.354Z,7.6
2018-09-24T12:31:11.903Z,7.5
2018-09-24T12:32:13.491Z,7.5
2018-09-24T12:33:15.050Z,7.4
2018-09-24T12:34:16.622Z,7.4
2018-09-24T12:35:18.168Z,7.4
2018-09-24T12:36:19.745Z,7.4
2018-09-24T12:37:21.321Z,7.4
2018-09-24T12:38:22.756Z,7.4
2018-09-24T12:39:25.008Z,7.4
2018-09-24T12:40:26.421Z,7.5
2018-09-24T12:41:28.011Z,7.5
2018-09-24T12:42:29.400Z,7.5
2018-09-24T12:43:30.969Z,7.6
2018-09-24T12:44:32.536Z,7.6
2018-09-24T12:45:34.084Z,7.6
2018-09-24T12:46:35.646Z,7.6
2018-09-24T12:47:37.296Z,7.6
2018-09-24T12:48:38.751Z,7.6
2018-09-24T12:49:40.328Z,7.6
2018-09-24T12:50:41.885Z,7.7
2018-09-24T12:51:43.454Z,7.7
2018-09-24T12:52:44.854Z,7.7
2018-09-24T12:53:46.436Z,7.8
2018-09-24T12:54:47.891Z,7.8
2018-09-24T12:55:49.506Z,7.8
2018-09-24T12:56:51.127Z,7.8
2018-09-24T12:57:52.533Z,7.8
2018-09-24T12:58:54.110Z,7.8
2018-09-24T12:59:55.714Z,7.7
2018-09-24T13:00:57.264Z,7.6
2018-09-24T13:01:58.831Z,7.5
2018-09-24T13:03:00.424Z,7.4
2018-09-24T13:04:01.975Z,7.2
2018-09-24T13:05:03.535Z,7.2
2018-09-24T13:06:05.084Z,7.2
2018-09-24T13:07:06.640Z,7.2
2018-09-24T13:08:08.213Z,7.2
2018-09-24T13:09:09.780Z,7.2
2018-09-24T13:10:11.177Z,7.2
2018-09-24T13:11:12.748Z,7.2
2018-09-24T13:12:14.316Z,7.2
2018-09-24T13:13:15.887Z,7.1
2018-09-24T13:14:17.488Z,7.2
2018-09-24T13:15:19.053Z,7.1
2018-09-24T13:16:20.456Z,7.2
2018-09-24T13:17:22.028Z,7.2
2018-09-24T13:18:23.606Z,7.2
2018-09-24T13:19:25.185Z,7.2
2018-09-24T13:20:26.775Z,7.2
2018-09-24T13:21:28.194Z,7.2
2018-09-24T13:22:29.798Z,7.2
2018-09-24T13:23:31.379Z,7.2
2018-09-24T13:24:32.935Z,7.2
2018-09-24T13:25:34.499Z,7.2
2018-09-24T13:26:36.128Z,7.2
2018-09-24T13:27:37.703Z,7.2
2018-09-24T13:28:39.111Z,7.2
2018-09-24T13:29:40.689Z,7.2
2018-09-24T13:30:42.082Z,7.2
2018-09-24T13:31:43.495Z,7.2
2018-09-24T13:32:45.480Z,7.2
2018-09-24T13:33:47.051Z,7.2
2018-09-24T13:34:48.620Z,7.2
2018-09-24T13:35:50.199Z,7.2
2018-09-24T13:36:51.781Z,7.3
2018-09-24T13:37:53.341Z,7.3
2018-09-24T13:38:54.904Z,7.3
2018-09-24T13:39:56.459Z,7.3
2018-09-24T13:40:58.019Z,7.3
2018-09-24T13:41:59.423Z,7.4
2018-09-24T13:43:01.009Z,7.4
2018-09-24T13:44:02.622Z,7.4
2018-09-24T13:45:04.209Z,7.4
2018-09-24T13:46:05.781Z,7.4
2018-09-24T13:47:07.488Z,7.4
2018-09-24T13:48:09.106Z,7.5
2018-09-24T13:49:10.687Z,7.5
2018-09-24T13:50:12.292Z,7.6
2018-09-24T13:51:13.848Z,7.6
2018-09-24T13:52:15.249Z,7.7
2018-09-24T13:53:17.031Z,7.7
2018-09-24T13:54:18.619Z,7.8
2018-09-24T13:55:20.209Z,7.8
2018-09-24T13:56:21.988Z,7.9
2018-09-24T13:57:23.558Z,7.9
2018-09-24T13:58:25.379Z,7.9
2018-09-24T13:59:26.971Z,7.9
2018-09-24T14:00:28.546Z,7.9
2018-09-24T14:01:30.132Z,7.9
2018-09-24T14:02:31.553Z,7.9
2018-09-24T14:03:33.136Z,7.9
2018-09-24T14:04:34.727Z,7.9
2018-09-24T14:05:36.152Z,7.9
2018-09-24T14:06:37.725Z,7.9
2018-09-24T14:07:39.317Z,7.9
2018-09-24T14:08:40.878Z,7.9
2018-09-24T14:09:42.283Z,7.9